sensor_id;sensor_type;location;lat;lon;timestamp;P1;durP1;ratioP1;P2;durP2;ratioP2
16127;SDS011;8168;49.036;7.690;2024-01-15T00:00:07;23.27;;;7.43;;
16127;SDS011;8168;49.036;7.690;2024-01-15T00:02:38;23.20;;;8.30;;
16127;SDS011;8168;49.036;7.690;2024-01-15T00:05:09;20.07;;;8.77;;
16127;SDS011;8168;49.036;7.690;2024-01-15T00:07:40;16.60;;;7.80;;
16127;SDS011;8168;49.036;7.690;2024-01-15T00:10:11;8.40;;;4.07;;
16127;SDS011;8168;49.036;7.690;2024-01-15T00:12:42;15.37;;;7.20;;
16127;SDS011;8168;49.036;7.690;2024-01-15T00:15:13;16.63;;;7.13;;
16127;SDS011;8168;49.036;7.690;2024-01-15T00:17:45;6.17;;;3.50;;
16127;SDS011;8168;49.036;7.690;2024-01-15T00:20:16;17.27;;;7.43;;
16127;SDS011;8168;49.036;7.690;2024-01-15T00:22:47;4.97;;;3.50;;
16127;SDS011;8168;49.036;7.690;2024-01-15T00:25:18;8.60;;;4.10;;
16127;SDS011;8168;49.036;7.690;2024-01-15T00:27:49;7.37;;;3.30;;
16127;SDS011;8168;49.036;7.690;2024-01-15T00:30:19;10.43;;;5.77;;
16127;SDS011;8168;49.036;7.690;2024-01-15T00:32:50;15.03;;;7.03;;
16127;SDS011;8168;49.036;7.690;2024-01-15T00:35:21;12.87;;;5.73;;
16127;SDS011;8168;49.036;7.690;2024-01-15T00:37:52;15.07;;;7.27;;
16127;SDS011;8168;49.036;7.690;2024-01-15T00:40:23;13.47;;;6.47;;
16127;SDS011;8168;49.036;7.690;2024-01-15T00:42:55;14.53;;;5.77;;
16127;SDS011;8168;49.036;7.690;2024-01-15T00:45:26;15.80;;;6.17;;
16127;SDS011;8168;49.036;7.690;2024-01-15T00:47:57;13.70;;;7.00;;
16127;SDS011;8168;49.036;7.690;2024-01-15T00:50:31;15.97;;;6.63;;
16127;SDS011;8168;49.036;7.690;2024-01-15T00:53:02;16.13;;;6.60;;
16127;SDS011;8168;49.036;7.690;2024-01-15T00:55:33;9.43;;;4.57;;
16127;SDS011;8168;49.036;7.690;2024-01-15T00:58:04;16.97;;;6.87;;
16127;SDS011;8168;49.036;7.690;2024-01-15T01:00:34;18.57;;;7.80;;
16127;SDS011;8168;49.036;7.690;2024-01-15T01:03:05;12.87;;;7.13;;
16127;SDS011;8168;49.036;7.690;2024-01-15T01:05:36;12.57;;;5.27;;
16127;SDS011;8168;49.036;7.690;2024-01-15T01:08:07;16.50;;;5.10;;
16127;SDS011;8168;49.036;7.690;2024-01-15T01:10:38;15.27;;;7.23;;
16127;SDS011;8168;49.036;7.690;2024-01-15T01:13:10;14.57;;;5.93;;
16127;SDS011;8168;49.036;7.690;2024-01-15T01:15:41;15.97;;;7.43;;
16127;SDS011;8168;49.036;7.690;2024-01-15T01:18:12;13.73;;;5.37;;
16127;SDS011;8168;49.036;7.690;2024-01-15T01:20:43;13.83;;;5.70;;
16127;SDS011;8168;49.036;7.690;2024-01-15T01:23:13;13.20;;;5.03;;
16127;SDS011;8168;49.036;7.690;2024-01-15T01:25:44;19.30;;;6.93;;
16127;SDS011;8168;49.036;7.690;2024-01-15T01:28:16;12.93;;;5.80;;
16127;SDS011;8168;49.036;7.690;2024-01-15T01:30:47;16.53;;;6.93;;
16127;SDS011;8168;49.036;7.690;2024-01-15T01:33:18;12.57;;;5.87;;
16127;SDS011;8168;49.036;7.690;2024-01-15T01:35:49;18.57;;;6.60;;
16127;SDS011;8168;49.036;7.690;2024-01-15T01:38:20;17.90;;;6.93;;
16127;SDS011;8168;49.036;7.690;2024-01-15T01:40:51;20.20;;;6.73;;
16127;SDS011;8168;49.036;7.690;2024-01-15T01:43:22;14.50;;;6.30;;
16127;SDS011;8168;49.036;7.690;2024-01-15T01:45:54;11.00;;;4.47;;
16127;SDS011;8168;49.036;7.690;2024-01-15T01:48:26;16.73;;;7.83;;
16127;SDS011;8168;49.036;7.690;2024-01-15T01:50:59;14.27;;;6.60;;
16127;SDS011;8168;49.036;7.690;2024-01-15T01:53:33;16.63;;;6.83;;
16127;SDS011;8168;49.036;7.690;2024-01-15T01:56:07;13.50;;;6.53;;
16127;SDS011;8168;49.036;7.690;2024-01-15T01:58:38;23.77;;;8.00;;
16127;SDS011;8168;49.036;7.690;2024-01-15T02:01:10;19.60;;;6.70;;
16127;SDS011;8168;49.036;7.690;2024-01-15T02:03:42;14.83;;;6.37;;
16127;SDS011;8168;49.036;7.690;2024-01-15T02:06:13;16.27;;;6.87;;
16127;SDS011;8168;49.036;7.690;2024-01-15T02:08:44;14.07;;;6.60;;
16127;SDS011;8168;49.036;7.690;2024-01-15T02:11:15;13.67;;;6.40;;
16127;SDS011;8168;49.036;7.690;2024-01-15T02:13:45;12.53;;;6.83;;
16127;SDS011;8168;49.036;7.690;2024-01-15T02:16:16;11.20;;;5.43;;
16127;SDS011;8168;49.036;7.690;2024-01-15T02:18:48;12.07;;;5.70;;
16127;SDS011;8168;49.036;7.690;2024-01-15T02:21:21;21.90;;;8.37;;
16127;SDS011;8168;49.036;7.690;2024-01-15T02:23:55;12.27;;;5.67;;
16127;SDS011;8168;49.036;7.690;2024-01-15T02:26:26;19.13;;;8.13;;
16127;SDS011;8168;49.036;7.690;2024-01-15T02:28:57;23.80;;;8.30;;
16127;SDS011;8168;49.036;7.690;2024-01-15T02:31:28;7.87;;;4.30;;
16127;SDS011;8168;49.036;7.690;2024-01-15T02:33:59;20.13;;;7.80;;
16127;SDS011;8168;49.036;7.690;2024-01-15T02:36:30;17.97;;;9.17;;
16127;SDS011;8168;49.036;7.690;2024-01-15T02:39:01;18.77;;;7.43;;
16127;SDS011;8168;49.036;7.690;2024-01-15T02:41:33;17.93;;;7.23;;
16127;SDS011;8168;49.036;7.690;2024-01-15T02:44:03;15.37;;;6.63;;
16127;SDS011;8168;49.036;7.690;2024-01-15T02:46:35;19.97;;;8.77;;
16127;SDS011;8168;49.036;7.690;2024-01-15T02:49:05;19.63;;;7.63;;
16127;SDS011;8168;49.036;7.690;2024-01-15T02:51:37;17.40;;;7.17;;
16127;SDS011;8168;49.036;7.690;2024-01-15T02:54:08;14.87;;;6.47;;
16127;SDS011;8168;49.036;7.690;2024-01-15T02:56:38;17.63;;;7.23;;
16127;SDS011;8168;49.036;7.690;2024-01-15T02:59:09;17.03;;;7.33;;
16127;SDS011;8168;49.036;7.690;2024-01-15T03:01:40;13.47;;;6.97;;
16127;SDS011;8168;49.036;7.690;2024-01-15T03:04:11;20.77;;;7.97;;
16127;SDS011;8168;49.036;7.690;2024-01-15T03:06:42;18.83;;;8.07;;
16127;SDS011;8168;49.036;7.690;2024-01-15T03:09:13;17.17;;;7.17;;
16127;SDS011;8168;49.036;7.690;2024-01-15T03:11:44;15.30;;;7.33;;
16127;SDS011;8168;49.036;7.690;2024-01-15T03:14:15;15.57;;;6.37;;
16127;SDS011;8168;49.036;7.690;2024-01-15T03:16:46;16.47;;;7.00;;
16127;SDS011;8168;49.036;7.690;2024-01-15T03:19:17;17.50;;;7.97;;
16127;SDS011;8168;49.036;7.690;2024-01-15T03:21:48;17.13;;;8.10;;
16127;SDS011;8168;49.036;7.690;2024-01-15T03:24:19;16.23;;;7.73;;
16127;SDS011;8168;49.036;7.690;2024-01-15T03:26:50;14.07;;;6.30;;
16127;SDS011;8168;49.036;7.690;2024-01-15T03:29:21;16.10;;;7.07;;
16127;SDS011;8168;49.036;7.690;2024-01-15T03:31:52;16.77;;;7.33;;
16127;SDS011;8168;49.036;7.690;2024-01-15T03:34:23;17.20;;;7.57;;
16127;SDS011;8168;49.036;7.690;2024-01-15T03:36:54;15.90;;;6.97;;
16127;SDS011;8168;49.036;7.690;2024-01-15T03:39:25;17.30;;;6.97;;
16127;SDS011;8168;49.036;7.690;2024-01-15T03:41:56;15.40;;;7.63;;
16127;SDS011;8168;49.036;7.690;2024-01-15T03:44:28;16.60;;;7.50;;
16127;SDS011;8168;49.036;7.690;2024-01-15T03:46:59;11.63;;;5.90;;
16127;SDS011;8168;49.036;7.690;2024-01-15T03:49:30;17.10;;;8.37;;
16127;SDS011;8168;49.036;7.690;2024-01-15T03:52:01;16.70;;;7.20;;
16127;SDS011;8168;49.036;7.690;2024-01-15T03:54:32;16.30;;;8.43;;
16127;SDS011;8168;49.036;7.690;2024-01-15T03:57:04;13.97;;;7.97;;
16127;SDS011;8168;49.036;7.690;2024-01-15T03:59:35;17.80;;;6.77;;
16127;SDS011;8168;49.036;7.690;2024-01-15T04:02:06;21.57;;;7.53;;
16127;SDS011;8168;49.036;7.690;2024-01-15T04:04:40;15.07;;;7.33;;
16127;SDS011;8168;49.036;7.690;2024-01-15T04:07:12;12.10;;;6.67;;
16127;SDS011;8168;49.036;7.690;2024-01-15T04:09:43;18.93;;;7.43;;
16127;SDS011;8168;49.036;7.690;2024-01-15T04:12:14;11.30;;;5.57;;
16127;SDS011;8168;49.036;7.690;2024-01-15T04:14:45;20.13;;;8.03;;
16127;SDS011;8168;49.036;7.690;2024-01-15T04:17:16;13.43;;;7.37;;
16127;SDS011;8168;49.036;7.690;2024-01-15T04:19:47;13.07;;;6.80;;
16127;SDS011;8168;49.036;7.690;2024-01-15T04:22:19;21.53;;;7.80;;
16127;SDS011;8168;49.036;7.690;2024-01-15T04:24:50;18.77;;;7.67;;
16127;SDS011;8168;49.036;7.690;2024-01-15T04:27:21;12.17;;;6.37;;
16127;SDS011;8168;49.036;7.690;2024-01-15T04:29:52;14.30;;;6.43;;
16127;SDS011;8168;49.036;7.690;2024-01-15T04:32:23;17.03;;;7.73;;
16127;SDS011;8168;49.036;7.690;2024-01-15T04:34:54;14.27;;;8.17;;
16127;SDS011;8168;49.036;7.690;2024-01-15T04:37:25;16.70;;;7.40;;
16127;SDS011;8168;49.036;7.690;2024-01-15T04:39:56;16.43;;;7.37;;
16127;SDS011;8168;49.036;7.690;2024-01-15T04:42:27;10.73;;;6.40;;
16127;SDS011;8168;49.036;7.690;2024-01-15T04:44:58;15.07;;;7.07;;
16127;SDS011;8168;49.036;7.690;2024-01-15T04:47:29;17.20;;;7.93;;
16127;SDS011;8168;49.036;7.690;2024-01-15T04:50:00;12.20;;;5.50;;
16127;SDS011;8168;49.036;7.690;2024-01-15T04:52:31;16.23;;;7.67;;
16127;SDS011;8168;49.036;7.690;2024-01-15T04:55:02;17.37;;;9.00;;
16127;SDS011;8168;49.036;7.690;2024-01-15T04:57:33;15.33;;;6.97;;
16127;SDS011;8168;49.036;7.690;2024-01-15T05:00:04;14.40;;;7.73;;
16127;SDS011;8168;49.036;7.690;2024-01-15T05:02:35;12.57;;;7.63;;
16127;SDS011;8168;49.036;7.690;2024-01-15T05:05:06;11.43;;;5.53;;
16127;SDS011;8168;49.036;7.690;2024-01-15T05:07:37;18.97;;;8.50;;
16127;SDS011;8168;49.036;7.690;2024-01-15T05:10:08;14.97;;;7.13;;
16127;SDS011;8168;49.036;7.690;2024-01-15T05:12:38;15.00;;;7.37;;
16127;SDS011;8168;49.036;7.690;2024-01-15T05:15:09;19.07;;;6.43;;
16127;SDS011;8168;49.036;7.690;2024-01-15T05:17:41;18.10;;;7.93;;
16127;SDS011;8168;49.036;7.690;2024-01-15T05:20:11;19.73;;;8.30;;
16127;SDS011;8168;49.036;7.690;2024-01-15T05:22:42;14.60;;;7.97;;
16127;SDS011;8168;49.036;7.690;2024-01-15T05:25:13;14.53;;;6.43;;
16127;SDS011;8168;49.036;7.690;2024-01-15T05:27:44;17.43;;;7.90;;
16127;SDS011;8168;49.036;7.690;2024-01-15T05:30:15;17.33;;;7.83;;
16127;SDS011;8168;49.036;7.690;2024-01-15T05:32:46;18.80;;;6.93;;
16127;SDS011;8168;49.036;7.690;2024-01-15T05:35:17;15.07;;;7.83;;
16127;SDS011;8168;49.036;7.690;2024-01-15T05:37:48;16.87;;;7.70;;
16127;SDS011;8168;49.036;7.690;2024-01-15T05:40:19;23.70;;;7.97;;
16127;SDS011;8168;49.036;7.690;2024-01-15T05:42:50;17.23;;;7.80;;
16127;SDS011;8168;49.036;7.690;2024-01-15T05:45:21;19.37;;;6.93;;
16127;SDS011;8168;49.036;7.690;2024-01-15T05:47:52;13.17;;;6.80;;
16127;SDS011;8168;49.036;7.690;2024-01-15T05:50:24;13.43;;;6.63;;
16127;SDS011;8168;49.036;7.690;2024-01-15T05:52:54;13.17;;;5.87;;
16127;SDS011;8168;49.036;7.690;2024-01-15T05:55:26;18.90;;;7.47;;
16127;SDS011;8168;49.036;7.690;2024-01-15T05:57:56;17.10;;;7.47;;
16127;SDS011;8168;49.036;7.690;2024-01-15T06:00:27;17.83;;;8.43;;
16127;SDS011;8168;49.036;7.690;2024-01-15T06:02:59;17.23;;;8.73;;
16127;SDS011;8168;49.036;7.690;2024-01-15T06:05:30;18.03;;;8.40;;
16127;SDS011;8168;49.036;7.690;2024-01-15T06:08:00;22.23;;;8.10;;
16127;SDS011;8168;49.036;7.690;2024-01-15T06:10:31;15.63;;;7.23;;
16127;SDS011;8168;49.036;7.690;2024-01-15T06:13:03;16.70;;;7.70;;
16127;SDS011;8168;49.036;7.690;2024-01-15T06:15:34;14.30;;;6.00;;
16127;SDS011;8168;49.036;7.690;2024-01-15T06:18:05;17.83;;;8.40;;
16127;SDS011;8168;49.036;7.690;2024-01-15T06:20:36;15.77;;;7.37;;
16127;SDS011;8168;49.036;7.690;2024-01-15T06:23:08;16.80;;;7.53;;
16127;SDS011;8168;49.036;7.690;2024-01-15T06:25:38;16.00;;;7.27;;
16127;SDS011;8168;49.036;7.690;2024-01-15T06:28:09;14.70;;;7.50;;
16127;SDS011;8168;49.036;7.690;2024-01-15T06:30:40;16.23;;;6.97;;
16127;SDS011;8168;49.036;7.690;2024-01-15T06:33:12;13.93;;;6.83;;
16127;SDS011;8168;49.036;7.690;2024-01-15T06:35:43;8.73;;;5.00;;
16127;SDS011;8168;49.036;7.690;2024-01-15T06:38:14;16.33;;;7.90;;
16127;SDS011;8168;49.036;7.690;2024-01-15T06:40:45;12.93;;;6.17;;
16127;SDS011;8168;49.036;7.690;2024-01-15T06:43:18;17.37;;;7.37;;
16127;SDS011;8168;49.036;7.690;2024-01-15T06:45:49;15.10;;;7.30;;
16127;SDS011;8168;49.036;7.690;2024-01-15T06:48:20;13.77;;;7.47;;
16127;SDS011;8168;49.036;7.690;2024-01-15T06:50:51;16.87;;;6.83;;
16127;SDS011;8168;49.036;7.690;2024-01-15T06:53:22;13.77;;;7.53;;
16127;SDS011;8168;49.036;7.690;2024-01-15T06:55:53;16.13;;;8.33;;
16127;SDS011;8168;49.036;7.690;2024-01-15T06:58:24;15.60;;;8.80;;
16127;SDS011;8168;49.036;7.690;2024-01-15T07:00:55;17.10;;;7.93;;
16127;SDS011;8168;49.036;7.690;2024-01-15T07:03:26;17.27;;;7.67;;
16127;SDS011;8168;49.036;7.690;2024-01-15T07:05:57;17.87;;;8.80;;
16127;SDS011;8168;49.036;7.690;2024-01-15T07:08:28;17.63;;;8.27;;
16127;SDS011;8168;49.036;7.690;2024-01-15T07:10:59;19.30;;;8.17;;
16127;SDS011;8168;49.036;7.690;2024-01-15T07:13:30;18.20;;;8.10;;
16127;SDS011;8168;49.036;7.690;2024-01-15T07:16:01;19.33;;;8.87;;
16127;SDS011;8168;49.036;7.690;2024-01-15T07:18:32;17.43;;;8.33;;
16127;SDS011;8168;49.036;7.690;2024-01-15T07:21:03;16.07;;;7.80;;
16127;SDS011;8168;49.036;7.690;2024-01-15T07:23:34;15.33;;;6.80;;
16127;SDS011;8168;49.036;7.690;2024-01-15T07:26:05;15.30;;;8.30;;
16127;SDS011;8168;49.036;7.690;2024-01-15T07:28:36;17.70;;;7.80;;
16127;SDS011;8168;49.036;7.690;2024-01-15T07:31:08;18.17;;;8.30;;
16127;SDS011;8168;49.036;7.690;2024-01-15T07:33:39;15.90;;;8.00;;
16127;SDS011;8168;49.036;7.690;2024-01-15T07:36:10;14.87;;;8.10;;
16127;SDS011;8168;49.036;7.690;2024-01-15T07:38:41;17.40;;;7.83;;
16127;SDS011;8168;49.036;7.690;2024-01-15T07:41:13;18.97;;;9.47;;
16127;SDS011;8168;49.036;7.690;2024-01-15T07:43:44;21.47;;;8.93;;
16127;SDS011;8168;49.036;7.690;2024-01-15T07:46:15;20.27;;;9.33;;
16127;SDS011;8168;49.036;7.690;2024-01-15T07:48:46;19.97;;;8.73;;
16127;SDS011;8168;49.036;7.690;2024-01-15T07:51:17;18.43;;;8.63;;
16127;SDS011;8168;49.036;7.690;2024-01-15T07:53:48;19.80;;;7.80;;
16127;SDS011;8168;49.036;7.690;2024-01-15T07:56:19;15.43;;;7.70;;
16127;SDS011;8168;49.036;7.690;2024-01-15T07:58:51;17.80;;;6.97;;
16127;SDS011;8168;49.036;7.690;2024-01-15T08:01:22;18.40;;;7.93;;
16127;SDS011;8168;49.036;7.690;2024-01-15T08:03:53;19.07;;;9.17;;
16127;SDS011;8168;49.036;7.690;2024-01-15T08:06:25;21.27;;;8.23;;
16127;SDS011;8168;49.036;7.690;2024-01-15T08:08:56;18.63;;;7.90;;
16127;SDS011;8168;49.036;7.690;2024-01-15T08:11:27;13.00;;;6.63;;
16127;SDS011;8168;49.036;7.690;2024-01-15T08:13:58;15.43;;;7.33;;
16127;SDS011;8168;49.036;7.690;2024-01-15T08:16:29;17.07;;;8.03;;
16127;SDS011;8168;49.036;7.690;2024-01-15T08:19:00;18.83;;;8.23;;
16127;SDS011;8168;49.036;7.690;2024-01-15T08:21:31;17.17;;;7.80;;
16127;SDS011;8168;49.036;7.690;2024-01-15T08:24:02;12.30;;;7.13;;
16127;SDS011;8168;49.036;7.690;2024-01-15T08:26:33;14.33;;;6.90;;
16127;SDS011;8168;49.036;7.690;2024-01-15T08:29:04;18.37;;;7.70;;
16127;SDS011;8168;49.036;7.690;2024-01-15T08:31:35;18.53;;;8.20;;
16127;SDS011;8168;49.036;7.690;2024-01-15T08:34:06;16.47;;;6.93;;
16127;SDS011;8168;49.036;7.690;2024-01-15T08:36:37;17.07;;;7.53;;
16127;SDS011;8168;49.036;7.690;2024-01-15T08:39:08;14.50;;;7.47;;
16127;SDS011;8168;49.036;7.690;2024-01-15T08:41:39;16.37;;;6.83;;
16127;SDS011;8168;49.036;7.690;2024-01-15T08:44:10;16.60;;;7.60;;
16127;SDS011;8168;49.036;7.690;2024-01-15T08:46:41;15.37;;;7.97;;
16127;SDS011;8168;49.036;7.690;2024-01-15T08:49:12;16.77;;;8.03;;
16127;SDS011;8168;49.036;7.690;2024-01-15T08:51:43;15.83;;;7.00;;
16127;SDS011;8168;49.036;7.690;2024-01-15T08:54:14;13.53;;;6.33;;
16127;SDS011;8168;49.036;7.690;2024-01-15T08:56:45;14.00;;;7.40;;
16127;SDS011;8168;49.036;7.690;2024-01-15T08:59:16;16.80;;;7.13;;
16127;SDS011;8168;49.036;7.690;2024-01-15T09:01:50;16.07;;;7.10;;
16127;SDS011;8168;49.036;7.690;2024-01-15T09:04:21;17.03;;;7.07;;
16127;SDS011;8168;49.036;7.690;2024-01-15T09:06:52;19.07;;;7.83;;
16127;SDS011;8168;49.036;7.690;2024-01-15T09:09:23;15.77;;;7.83;;
16127;SDS011;8168;49.036;7.690;2024-01-15T09:11:54;10.40;;;5.83;;
16127;SDS011;8168;49.036;7.690;2024-01-15T09:14:26;17.80;;;8.03;;
16127;SDS011;8168;49.036;7.690;2024-01-15T09:16:59;13.37;;;6.90;;
16127;SDS011;8168;49.036;7.690;2024-01-15T09:19:30;15.27;;;7.13;;
16127;SDS011;8168;49.036;7.690;2024-01-15T09:22:01;13.23;;;6.67;;
16127;SDS011;8168;49.036;7.690;2024-01-15T09:24:31;12.10;;;6.40;;
16127;SDS011;8168;49.036;7.690;2024-01-15T09:27:03;13.87;;;6.90;;
16127;SDS011;8168;49.036;7.690;2024-01-15T09:29:34;14.00;;;6.47;;
16127;SDS011;8168;49.036;7.690;2024-01-15T09:32:07;12.23;;;6.90;;
16127;SDS011;8168;49.036;7.690;2024-01-15T09:34:38;11.63;;;5.73;;
16127;SDS011;8168;49.036;7.690;2024-01-15T09:37:09;15.83;;;7.40;;
16127;SDS011;8168;49.036;7.690;2024-01-15T09:39:40;11.50;;;6.23;;
16127;SDS011;8168;49.036;7.690;2024-01-15T09:42:11;15.43;;;6.93;;
16127;SDS011;8168;49.036;7.690;2024-01-15T09:44:42;13.10;;;6.50;;
16127;SDS011;8168;49.036;7.690;2024-01-15T09:47:13;14.03;;;6.97;;
16127;SDS011;8168;49.036;7.690;2024-01-15T09:49:46;12.63;;;5.93;;
16127;SDS011;8168;49.036;7.690;2024-01-15T09:52:17;12.70;;;6.40;;
16127;SDS011;8168;49.036;7.690;2024-01-15T09:54:49;14.50;;;6.47;;
16127;SDS011;8168;49.036;7.690;2024-01-15T09:57:20;19.07;;;7.00;;
16127;SDS011;8168;49.036;7.690;2024-01-15T09:59:51;10.83;;;6.13;;
16127;SDS011;8168;49.036;7.690;2024-01-15T10:02:23;13.27;;;7.30;;
16127;SDS011;8168;49.036;7.690;2024-01-15T10:04:54;19.27;;;7.20;;
16127;SDS011;8168;49.036;7.690;2024-01-15T10:07:25;11.20;;;7.03;;
16127;SDS011;8168;49.036;7.690;2024-01-15T10:09:58;11.57;;;7.03;;
16127;SDS011;8168;49.036;7.690;2024-01-15T10:12:29;14.43;;;6.97;;
16127;SDS011;8168;49.036;7.690;2024-01-15T10:15:00;13.50;;;7.40;;
16127;SDS011;8168;49.036;7.690;2024-01-15T10:17:31;13.40;;;6.63;;
16127;SDS011;8168;49.036;7.690;2024-01-15T10:20:02;16.93;;;8.00;;
16127;SDS011;8168;49.036;7.690;2024-01-15T10:22:34;12.43;;;6.23;;
16127;SDS011;8168;49.036;7.690;2024-01-15T10:25:09;14.00;;;6.47;;
16127;SDS011;8168;49.036;7.690;2024-01-15T10:27:41;11.37;;;5.67;;
16127;SDS011;8168;49.036;7.690;2024-01-15T10:30:12;11.00;;;6.23;;
16127;SDS011;8168;49.036;7.690;2024-01-15T10:32:44;11.30;;;6.67;;
16127;SDS011;8168;49.036;7.690;2024-01-15T10:35:31;13.93;;;6.00;;
16127;SDS011;8168;49.036;7.690;2024-01-15T10:38:04;11.40;;;5.97;;
16127;SDS011;8168;49.036;7.690;2024-01-15T10:40:35;12.13;;;5.33;;
16127;SDS011;8168;49.036;7.690;2024-01-15T10:43:06;8.73;;;5.10;;
16127;SDS011;8168;49.036;7.690;2024-01-15T10:45:37;15.17;;;5.50;;
16127;SDS011;8168;49.036;7.690;2024-01-15T10:48:08;16.63;;;5.47;;
16127;SDS011;8168;49.036;7.690;2024-01-15T10:50:39;6.57;;;4.07;;
16127;SDS011;8168;49.036;7.690;2024-01-15T10:53:11;5.13;;;3.50;;
16127;SDS011;8168;49.036;7.690;2024-01-15T10:55:43;12.83;;;6.23;;
16127;SDS011;8168;49.036;7.690;2024-01-15T10:58:18;9.90;;;4.73;;
16127;SDS011;8168;49.036;7.690;2024-01-15T11:00:50;7.97;;;4.17;;
16127;SDS011;8168;49.036;7.690;2024-01-15T11:03:21;10.30;;;5.40;;
16127;SDS011;8168;49.036;7.690;2024-01-15T11:05:53;9.17;;;4.47;;
16127;SDS011;8168;49.036;7.690;2024-01-15T11:08:24;8.93;;;4.93;;
16127;SDS011;8168;49.036;7.690;2024-01-15T11:10:55;6.77;;;3.57;;
16127;SDS011;8168;49.036;7.690;2024-01-15T11:16:04;7.87;;;4.53;;
16127;SDS011;8168;49.036;7.690;2024-01-15T11:18:42;6.50;;;3.80;;
16127;SDS011;8168;49.036;7.690;2024-01-15T11:23:49;8.63;;;3.87;;
16127;SDS011;8168;49.036;7.690;2024-01-15T11:29:28;7.03;;;3.67;;
16127;SDS011;8168;49.036;7.690;2024-01-15T11:32:05;4.37;;;2.97;;
16127;SDS011;8168;49.036;7.690;2024-01-15T11:40:22;9.53;;;4.23;;
16127;SDS011;8168;49.036;7.690;2024-01-15T11:43:03;5.40;;;3.27;;
16127;SDS011;8168;49.036;7.690;2024-01-15T11:45:34;5.83;;;3.10;;
16127;SDS011;8168;49.036;7.690;2024-01-15T11:48:09;7.73;;;4.20;;
16127;SDS011;8168;49.036;7.690;2024-01-15T11:50:42;7.90;;;4.30;;
16127;SDS011;8168;49.036;7.690;2024-01-15T11:56:10;8.73;;;4.80;;
16127;SDS011;8168;49.036;7.690;2024-01-15T11:58:44;8.43;;;4.63;;
16127;SDS011;8168;49.036;7.690;2024-01-15T12:01:15;9.27;;;3.97;;
16127;SDS011;8168;49.036;7.690;2024-01-15T12:03:47;6.93;;;3.87;;
16127;SDS011;8168;49.036;7.690;2024-01-15T12:06:18;8.97;;;4.73;;
16127;SDS011;8168;49.036;7.690;2024-01-15T12:08:49;8.77;;;4.67;;
16127;SDS011;8168;49.036;7.690;2024-01-15T12:11:20;7.97;;;4.50;;
16127;SDS011;8168;49.036;7.690;2024-01-15T12:13:54;9.03;;;4.73;;
16127;SDS011;8168;49.036;7.690;2024-01-15T12:16:27;9.20;;;4.97;;
16127;SDS011;8168;49.036;7.690;2024-01-15T12:18:58;9.57;;;4.63;;
16127;SDS011;8168;49.036;7.690;2024-01-15T12:21:29;8.83;;;4.80;;
16127;SDS011;8168;49.036;7.690;2024-01-15T12:24:00;9.40;;;5.33;;
16127;SDS011;8168;49.036;7.690;2024-01-15T12:26:31;6.83;;;4.83;;
16127;SDS011;8168;49.036;7.690;2024-01-15T12:29:02;10.77;;;5.43;;
16127;SDS011;8168;49.036;7.690;2024-01-15T12:31:34;9.70;;;4.97;;
16127;SDS011;8168;49.036;7.690;2024-01-15T12:34:05;7.10;;;4.73;;
16127;SDS011;8168;49.036;7.690;2024-01-15T12:36:36;8.93;;;5.40;;
16127;SDS011;8168;49.036;7.690;2024-01-15T12:39:11;10.37;;;5.07;;
16127;SDS011;8168;49.036;7.690;2024-01-15T12:41:42;7.63;;;5.27;;
16127;SDS011;8168;49.036;7.690;2024-01-15T12:44:13;9.97;;;5.40;;
16127;SDS011;8168;49.036;7.690;2024-01-15T12:46:44;4.73;;;3.70;;
16127;SDS011;8168;49.036;7.690;2024-01-15T12:49:15;8.63;;;5.33;;
16127;SDS011;8168;49.036;7.690;2024-01-15T12:51:53;11.17;;;4.90;;
16127;SDS011;8168;49.036;7.690;2024-01-15T12:54:24;10.07;;;5.10;;
16127;SDS011;8168;49.036;7.690;2024-01-15T12:56:55;7.53;;;4.80;;
16127;SDS011;8168;49.036;7.690;2024-01-15T12:59:26;10.57;;;6.20;;
16127;SDS011;8168;49.036;7.690;2024-01-15T13:01:57;9.33;;;5.10;;
16127;SDS011;8168;49.036;7.690;2024-01-15T13:04:28;7.83;;;5.40;;
16127;SDS011;8168;49.036;7.690;2024-01-15T13:06:59;10.20;;;4.77;;
16127;SDS011;8168;49.036;7.690;2024-01-15T13:09:30;9.80;;;5.27;;
16127;SDS011;8168;49.036;7.690;2024-01-15T13:12:02;9.47;;;5.50;;
16127;SDS011;8168;49.036;7.690;2024-01-15T13:14:32;9.63;;;5.13;;
16127;SDS011;8168;49.036;7.690;2024-01-15T13:17:04;10.53;;;6.47;;
16127;SDS011;8168;49.036;7.690;2024-01-15T13:19:36;9.43;;;5.47;;
16127;SDS011;8168;49.036;7.690;2024-01-15T13:22:07;7.77;;;5.00;;
16127;SDS011;8168;49.036;7.690;2024-01-15T13:24:39;9.00;;;5.43;;
16127;SDS011;8168;49.036;7.690;2024-01-15T13:27:10;8.90;;;5.37;;
16127;SDS011;8168;49.036;7.690;2024-01-15T13:29:41;8.47;;;5.13;;
16127;SDS011;8168;49.036;7.690;2024-01-15T13:32:12;10.70;;;5.60;;
16127;SDS011;8168;49.036;7.690;2024-01-15T13:34:47;8.47;;;5.60;;
16127;SDS011;8168;49.036;7.690;2024-01-15T13:37:18;8.00;;;5.13;;
16127;SDS011;8168;49.036;7.690;2024-01-15T13:39:49;10.07;;;5.23;;
16127;SDS011;8168;49.036;7.690;2024-01-15T13:42:21;8.03;;;4.23;;
16127;SDS011;8168;49.036;7.690;2024-01-15T13:44:52;11.97;;;6.03;;
16127;SDS011;8168;49.036;7.690;2024-01-15T13:47:24;10.33;;;5.47;;
16127;SDS011;8168;49.036;7.690;2024-01-15T13:49:55;11.87;;;4.57;;
16127;SDS011;8168;49.036;7.690;2024-01-15T13:52:26;10.53;;;5.60;;
16127;SDS011;8168;49.036;7.690;2024-01-15T13:54:58;7.97;;;4.70;;
16127;SDS011;8168;49.036;7.690;2024-01-15T13:57:29;10.27;;;5.27;;
16127;SDS011;8168;49.036;7.690;2024-01-15T14:00:00;7.37;;;3.93;;
16127;SDS011;8168;49.036;7.690;2024-01-15T14:02:31;11.47;;;5.87;;
16127;SDS011;8168;49.036;7.690;2024-01-15T14:05:02;7.87;;;5.33;;
16127;SDS011;8168;49.036;7.690;2024-01-15T14:07:33;6.73;;;4.10;;
16127;SDS011;8168;49.036;7.690;2024-01-15T14:10:04;9.60;;;6.13;;
16127;SDS011;8168;49.036;7.690;2024-01-15T14:12:35;9.07;;;5.60;;
16127;SDS011;8168;49.036;7.690;2024-01-15T14:15:06;10.00;;;5.47;;
16127;SDS011;8168;49.036;7.690;2024-01-15T14:17:37;8.97;;;5.33;;
16127;SDS011;8168;49.036;7.690;2024-01-15T14:20:08;8.47;;;5.30;;
16127;SDS011;8168;49.036;7.690;2024-01-15T14:22:40;9.23;;;4.80;;
16127;SDS011;8168;49.036;7.690;2024-01-15T14:25:11;11.57;;;5.83;;
16127;SDS011;8168;49.036;7.690;2024-01-15T14:27:42;8.93;;;5.40;;
16127;SDS011;8168;49.036;7.690;2024-01-15T14:30:13;9.63;;;4.93;;
16127;SDS011;8168;49.036;7.690;2024-01-15T14:32:45;9.83;;;5.30;;
16127;SDS011;8168;49.036;7.690;2024-01-15T14:35:16;11.93;;;7.83;;
16127;SDS011;8168;49.036;7.690;2024-01-15T14:37:47;11.67;;;6.80;;
16127;SDS011;8168;49.036;7.690;2024-01-15T14:40:18;9.90;;;5.80;;
16127;SDS011;8168;49.036;7.690;2024-01-15T14:42:49;7.90;;;4.77;;
16127;SDS011;8168;49.036;7.690;2024-01-15T14:45:20;9.77;;;5.67;;
16127;SDS011;8168;49.036;7.690;2024-01-15T14:47:51;9.80;;;5.23;;
16127;SDS011;8168;49.036;7.690;2024-01-15T14:50:22;9.93;;;4.73;;
16127;SDS011;8168;49.036;7.690;2024-01-15T14:52:53;9.60;;;5.13;;
16127;SDS011;8168;49.036;7.690;2024-01-15T14:55:24;4.90;;;3.30;;
16127;SDS011;8168;49.036;7.690;2024-01-15T14:57:55;3.27;;;2.37;;
16127;SDS011;8168;49.036;7.690;2024-01-15T15:00:26;5.60;;;2.87;;
16127;SDS011;8168;49.036;7.690;2024-01-15T15:02:57;8.47;;;4.67;;
16127;SDS011;8168;49.036;7.690;2024-01-15T15:05:29;6.23;;;4.10;;
16127;SDS011;8168;49.036;7.690;2024-01-15T15:08:00;6.60;;;4.57;;
16127;SDS011;8168;49.036;7.690;2024-01-15T15:10:32;5.97;;;4.20;;
16127;SDS011;8168;49.036;7.690;2024-01-15T15:13:03;6.47;;;3.50;;
16127;SDS011;8168;49.036;7.690;2024-01-15T15:15:34;8.93;;;4.60;;
16127;SDS011;8168;49.036;7.690;2024-01-15T15:18:05;8.70;;;5.43;;
16127;SDS011;8168;49.036;7.690;2024-01-15T15:20:36;9.77;;;5.30;;
16127;SDS011;8168;49.036;7.690;2024-01-15T15:23:07;7.00;;;3.37;;
16127;SDS011;8168;49.036;7.690;2024-01-15T15:25:39;7.77;;;4.40;;
16127;SDS011;8168;49.036;7.690;2024-01-15T15:28:13;8.53;;;3.80;;
16127;SDS011;8168;49.036;7.690;2024-01-15T15:30:46;7.53;;;4.67;;